createdAt,value
2019-05-13T00:02:13.364Z,6.93
2019-05-13T00:04:53.114Z,6.92
2019-05-13T00:07:26.280Z,6.92
2019-05-13T00:09:54.337Z,6.89
2019-05-13T00:12:27.846Z,6.89
2019-05-13T00:14:54.469Z,6.87
2019-05-13T00:17:21.125Z,6.88
2019-05-13T00:19:55.975Z,6.90
2019-05-13T00:22:23.417Z,6.94
2019-05-13T00:25:01.031Z,6.96
2019-05-13T00:27:27.726Z,6.98
2019-05-13T00:29:54.322Z,6.96
2019-05-13T00:32:23.598Z,6.97
2019-05-13T00:38:16.881Z,6.95
2019-05-13T00:40:44.347Z,6.87
2019-05-13T00:43:18.688Z,6.83
2019-05-13T00:48:46.461Z,6.76
2019-05-13T00:51:14.127Z,6.76
2019-05-13T00:53:48.005Z,6.74
2019-05-13T00:56:14.635Z,6.73
2019-05-13T00:58:43.623Z,6.73
2019-05-13T01:01:19.768Z,6.72
2019-05-13T01:03:46.408Z,6.70
2019-05-13T01:06:13.434Z,6.71
2019-05-13T01:08:40.240Z,6.71
2019-05-13T01:11:06.841Z,6.74
2019-05-13T01:13:34.204Z,6.75
2019-05-13T01:16:08.659Z,6.74
2019-05-13T01:18:35.418Z,6.75
2019-05-13T01:21:04.182Z,6.74
2019-05-13T01:23:40.442Z,6.74
2019-05-13T01:26:07.069Z,6.72
2019-05-13T01:28:34.403Z,6.71
2019-05-13T01:31:08.358Z,6.75
2019-05-13T01:33:35.195Z,6.78
2019-05-13T01:36:13.572Z,6.72
2019-05-13T01:38:40.223Z,6.71
2019-05-13T01:41:06.882Z,6.70
2019-05-13T01:43:33.658Z,6.71
2019-05-13T01:46:00.410Z,6.73
2019-05-13T01:48:27.034Z,6.70
2019-05-13T01:53:59.374Z,6.69
2019-05-13T01:56:25.984Z,6.68
2019-05-13T01:58:54.108Z,6.66
2019-05-13T02:01:30.910Z,6.64
2019-05-13T02:03:57.565Z,6.60
2019-05-13T02:06:24.271Z,6.59
2019-05-13T02:08:50.877Z,6.58
2019-05-13T02:11:17.505Z,6.55
2019-05-13T02:13:44.628Z,6.54
2019-05-13T02:16:19.007Z,6.55
2019-05-13T02:18:45.713Z,6.54
2019-05-13T02:21:13.912Z,6.52
2019-05-13T02:23:47.031Z,6.49
2019-05-13T02:26:13.737Z,6.47
2019-05-13T02:28:40.370Z,6.43
2019-05-13T02:31:07.009Z,6.39
2019-05-13T02:33:34.216Z,6.38
2019-05-13T02:36:08.319Z,6.36
2019-05-13T02:38:35.838Z,6.29
2019-05-13T02:41:13.152Z,6.30
2019-05-13T02:43:45.516Z,6.30
2019-05-13T02:46:22.425Z,6.32
2019-05-13T02:48:54.632Z,6.35
2019-05-13T02:51:23.035Z,6.36
2019-05-13T02:54:03.228Z,6.37
2019-05-13T02:56:34.690Z,6.40
2019-05-13T02:59:03.957Z,6.41
2019-05-13T03:01:36.469Z,6.41
2019-05-13T03:04:03.542Z,6.40
2019-05-13T03:06:38.257Z,6.41
2019-05-13T03:09:06.544Z,6.41
2019-05-13T03:11:33.450Z,6.44
2019-05-13T03:14:07.788Z,6.46
2019-05-13T03:16:53.976Z,6.45
2019-05-13T03:19:22.463Z,6.44
2019-05-13T03:21:56.399Z,6.42
2019-05-13T03:24:23.475Z,6.41
2019-05-13T03:26:53.284Z,6.40
2019-05-13T03:29:25.693Z,6.42
2019-05-13T03:31:55.782Z,6.44
2019-05-13T03:34:28.230Z,6.44
2019-05-13T03:37:36.468Z,6.41
2019-05-13T03:40:03.708Z,6.39
2019-05-13T03:43:12.852Z,6.41
2019-05-13T03:46:07.968Z,6.37
2019-05-13T03:48:35.175Z,6.42
2019-05-13T03:54:22.907Z,6.41
2019-05-13T03:56:57.585Z,6.45
2019-05-13T03:59:24.664Z,6.48
2019-05-13T04:01:52.580Z,6.51
2019-05-13T04:04:26.806Z,6.55
2019-05-13T04:06:53.856Z,6.57
2019-05-13T04:09:30.139Z,6.59
2019-05-13T04:11:55.945Z,6.64
2019-05-13T04:14:23.472Z,6.68
2019-05-13T04:16:58.500Z,6.72
2019-05-13T04:19:25.561Z,6.74
2019-05-13T04:21:53.016Z,6.76
2019-05-13T04:24:27.957Z,6.79
2019-05-13T04:26:57.805Z,6.82
2019-05-13T04:29:24.929Z,6.80
2019-05-13T04:31:53.161Z,6.84
2019-05-13T04:34:27.219Z,6.90
2019-05-13T04:37:35.134Z,6.93
2019-05-13T04:40:04.110Z,7.00
2019-05-13T04:42:42.480Z,7.04
2019-05-13T04:45:14.761Z,7.03
2019-05-13T04:47:43.232Z,7.02
2019-05-13T04:50:16.961Z,7.00
2019-05-13T04:52:44.039Z,7.00
2019-05-13T04:55:13.122Z,7.05
2019-05-13T04:57:46.649Z,7.10
2019-05-13T05:00:13.704Z,7.16
2019-05-13T05:03:23.075Z,7.20
2019-05-13T05:12:48.229Z,7.43
2019-05-13T05:15:54.236Z,7.46
2019-05-13T05:19:02.166Z,7.45
2019-05-13T05:22:13.431Z,7.52
2019-05-13T05:28:34.122Z,7.78
2019-05-13T05:31:44.222Z,7.84
2019-05-13T05:34:51.909Z,7.86
2019-05-13T05:38:02.490Z,7.94
2019-05-13T05:40:51.150Z,8.07
2019-05-13T05:43:59.048Z,8.20
2019-05-13T05:52:51.738Z,8.61
2019-05-13T05:56:02.169Z,8.67
2019-05-13T06:01:38.376Z,8.81
2019-05-13T06:04:46.340Z,9.10
2019-05-13T06:07:13.665Z,9.31
2019-05-13T06:09:52.884Z,9.54
2019-05-13T06:12:21.414Z,9.79
2019-05-13T06:14:59.044Z,10.16
2019-05-13T06:17:26.095Z,10.49
2019-05-13T06:19:53.279Z,10.66
2019-05-13T06:22:21.667Z,10.84
2019-05-13T06:25:01.424Z,11.02
2019-05-13T06:27:38.163Z,11.07
2019-05-13T06:30:05.422Z,11.07
2019-05-13T06:32:32.493Z,11.07
2019-05-13T06:35:01.878Z,11.20
2019-05-13T06:37:54.368Z,10.89
2019-05-13T06:40:26.219Z,10.89
2019-05-13T06:42:53.334Z,10.74
2019-05-13T06:45:21.670Z,10.79
2019-05-13T06:47:55.316Z,10.53
2019-05-13T06:50:22.402Z,10.64
2019-05-13T06:52:51.383Z,10.76
2019-05-13T06:55:26.327Z,10.69
2019-05-13T06:57:53.383Z,10.51
2019-05-13T07:00:21.595Z,10.50
2019-05-13T07:02:55.905Z,10.45
2019-05-13T07:05:23.018Z,10.60
2019-05-13T07:07:51.281Z,10.71
2019-05-13T07:10:26.614Z,10.79
2019-05-13T07:12:53.676Z,10.96
2019-05-13T07:15:22.354Z,10.85
2019-05-13T07:17:56.083Z,10.87
2019-05-13T07:20:23.181Z,10.95
2019-05-13T07:22:53.216Z,11.07
2019-05-13T07:28:05.513Z,11.29
2019-05-13T07:30:52.106Z,11.34
2019-05-13T07:33:38.731Z,11.20
2019-05-13T07:36:05.875Z,11.24
2019-05-13T07:38:32.943Z,11.24
2019-05-13T07:41:43.086Z,11.29
2019-05-13T07:44:16.628Z,11.40
2019-05-13T07:46:43.749Z,11.59
2019-05-13T07:49:31.565Z,11.61
2019-05-13T07:52:11.693Z,11.61
2019-05-13T07:54:57.220Z,11.59
2019-05-13T07:57:37.177Z,11.53
2019-05-13T08:00:04.629Z,11.53
2019-05-13T08:02:32.126Z,11.67
2019-05-13T08:05:54.318Z,11.67
2019-05-13T08:08:41.672Z,11.55
2019-05-13T08:11:16.549Z,11.55
2019-05-13T08:13:44.534Z,11.34
2019-05-13T08:16:22.080Z,11.20
2019-05-13T08:18:58.071Z,11.20
2019-05-13T08:21:25.139Z,11.28
2019-05-13T08:23:52.664Z,11.59
2019-05-13T08:26:49.868Z,11.76
2019-05-13T08:29:35.033Z,11.96
2019-05-13T08:32:14.236Z,12.13
2019-05-13T08:35:01.745Z,12.11
2019-05-13T08:37:35.473Z,12.01
2019-05-13T08:40:15.328Z,12.07
2019-05-13T08:42:42.457Z,12.07
2019-05-13T08:45:31.334Z,12.30
2019-05-13T08:48:07.920Z,12.30
2019-05-13T08:50:34.998Z,12.60
2019-05-13T08:53:02.094Z,12.68
2019-05-13T08:55:32.032Z,12.79
2019-05-13T08:58:04.837Z,12.80
2019-05-13T09:00:53.120Z,12.91
2019-05-13T09:03:32.619Z,13.00
2019-05-13T09:06:05.852Z,13.10
2019-05-13T09:08:54.685Z,12.98
2019-05-13T09:11:31.376Z,12.90
2019-05-13T09:14:04.465Z,12.63
2019-05-13T09:16:32.044Z,12.45
2019-05-13T09:19:15.747Z,12.24
2019-05-13T09:21:45.158Z,12.26
2019-05-13T09:24:23.928Z,12.43
2019-05-13T09:26:52.695Z,12.48
2019-05-13T09:29:27.149Z,12.55
2019-05-13T09:31:54.231Z,12.55
2019-05-13T09:34:22.079Z,12.63
2019-05-13T09:36:56.815Z,12.82
2019-05-13T09:39:23.963Z,13.17
2019-05-13T09:41:52.037Z,13.52
2019-05-13T09:44:32.395Z,13.93
2019-05-13T09:47:04.772Z,13.93
2019-05-13T09:49:32.847Z,14.01
2019-05-13T09:52:07.074Z,14.04
2019-05-13T09:54:34.198Z,13.92
2019-05-13T09:57:01.870Z,13.88
2019-05-13T09:59:36.321Z,13.84
2019-05-13T10:02:03.544Z,13.78
2019-05-13T10:04:43.943Z,13.64
2019-05-13T10:07:12.346Z,13.53
2019-05-13T10:09:48.361Z,13.40
2019-05-13T10:12:24.437Z,13.22
2019-05-13T10:14:56.878Z,13.20
2019-05-13T10:17:23.942Z,13.30
2019-05-13T10:19:52.016Z,13.39
2019-05-13T10:22:26.066Z,13.45
2019-05-13T10:24:53.137Z,13.63
2019-05-13T10:30:21.908Z,14.31
2019-05-13T10:32:48.985Z,14.43
2019-05-13T10:35:16.030Z,14.48
2019-05-13T10:38:27.735Z,14.42
2019-05-13T10:40:59.274Z,14.35
2019-05-13T10:43:31.359Z,14.34
2019-05-13T10:46:05.137Z,14.31
2019-05-13T10:48:32.192Z,14.30
2019-05-13T10:50:59.258Z,14.53
2019-05-13T10:53:26.364Z,14.62
2019-05-13T10:55:53.559Z,14.57
2019-05-13T10:58:23.345Z,14.62
2019-05-13T11:03:57.929Z,14.54
2019-05-13T11:06:25.018Z,14.69
2019-05-13T11:08:53.197Z,14.99
2019-05-13T11:11:33.008Z,15.50
2019-05-13T11:14:12.886Z,15.85
2019-05-13T11:16:44.864Z,16.24
2019-05-13T11:19:12.174Z,16.37
2019-05-13T11:21:51.048Z,15.88
2019-05-13T11:24:18.162Z,15.41
2019-05-13T11:26:45.215Z,15.06
2019-05-13T11:29:12.371Z,14.91
2019-05-13T11:31:42.497Z,14.77
2019-05-13T11:34:14.426Z,14.79
2019-05-13T11:36:52.837Z,14.55
2019-05-13T11:39:24.535Z,14.68
2019-05-13T11:41:51.621Z,15.01
2019-05-13T11:44:18.729Z,15.19
2019-05-13T11:46:45.820Z,15.39
2019-05-13T11:49:12.889Z,15.52
2019-05-13T11:51:41.850Z,15.52
2019-05-13T11:54:15.387Z,15.46
2019-05-13T11:56:49.150Z,15.28
2019-05-13T11:59:17.529Z,15.22
2019-05-13T12:01:44.643Z,15.15
2019-05-13T12:06:54.536Z,15.05
2019-05-13T12:09:31.961Z,15.17
2019-05-13T12:12:05.529Z,15.40
2019-05-13T12:14:44.291Z,15.57
2019-05-13T12:17:07.921Z,15.79
2019-05-13T12:19:35.064Z,15.98
2019-05-13T12:22:03.008Z,16.21
2019-05-13T12:24:37.719Z,16.08
2019-05-13T12:27:04.788Z,15.66
2019-05-13T12:29:31.866Z,15.58
2019-05-13T12:31:58.942Z,15.21
2019-05-13T12:34:26.005Z,15.17
2019-05-13T12:36:53.095Z,15.14
2019-05-13T12:39:23.837Z,14.68
2019-05-13T12:41:55.100Z,14.55
2019-05-13T12:44:22.921Z,14.29
2019-05-13T12:46:57.170Z,13.99
2019-05-13T12:49:31.496Z,13.98
2019-05-13T12:52:04.638Z,14.04
2019-05-13T12:54:38.395Z,14.23
2019-05-13T12:57:11.865Z,14.44
2019-05-13T12:59:44.418Z,14.52
2019-05-13T13:02:13.324Z,14.67
2019-05-13T13:05:07.875Z,14.54
2019-05-13T13:07:27.018Z,14.37
2019-05-13T13:09:54.210Z,14.13
2019-05-13T13:12:33.248Z,13.88
2019-05-13T13:14:56.448Z,13.79
2019-05-13T13:17:24.408Z,13.76
2019-05-13T13:20:06.098Z,13.70
2019-05-13T13:22:34.136Z,13.64
2019-05-13T13:25:05.026Z,13.60
2019-05-13T13:28:03.259Z,13.54
2019-05-13T13:30:36.712Z,13.51
2019-05-13T13:33:03.788Z,13.48
2019-05-13T13:35:33.714Z,13.47
2019-05-13T13:38:10.244Z,13.48
2019-05-13T13:40:37.862Z,13.39
2019-05-13T13:43:16.545Z,13.30
2019-05-13T13:48:18.627Z,13.29
2019-05-13T13:50:45.763Z,13.30
2019-05-13T13:53:14.321Z,13.32
2019-05-13T13:55:55.984Z,13.40
2019-05-13T13:58:26.676Z,13.47
2019-05-13T14:01:05.634Z,13.55
2019-05-13T14:03:32.951Z,13.60
2019-05-13T14:06:06.191Z,13.70
2019-05-13T14:07:09.298Z,13.27
2019-05-13T14:08:42.613Z,13.84
2019-05-13T14:11:11.662Z,13.95
2019-05-13T14:13:44.874Z,14.15
2019-05-13T14:16:24.833Z,14.37
2019-05-13T14:18:46.981Z,14.49
2019-05-13T14:21:14.081Z,14.76
2019-05-13T14:23:42.571Z,15.22
2019-05-13T14:26:16.889Z,15.59
2019-05-13T14:28:43.967Z,15.73
2019-05-13T14:31:12.779Z,15.62
2019-05-13T14:33:45.915Z,15.38
2019-05-13T14:36:13.182Z,15.51
2019-05-13T14:38:40.374Z,15.61
2019-05-13T14:41:09.292Z,15.57
2019-05-13T14:46:47.179Z,15.55
2019-05-13T14:49:14.315Z,15.71
2019-05-13T14:51:41.693Z,15.87
2019-05-13T14:54:17.219Z,15.84
2019-05-13T14:59:41.367Z,15.54
2019-05-13T15:02:07.830Z,15.38
2019-05-13T15:05:13.751Z,15.21
2019-05-13T15:10:36.949Z,14.73
2019-05-13T15:13:06.435Z,14.54
2019-05-13T15:15:34.354Z,14.43
2019-05-13T15:18:02.221Z,14.36
2019-05-13T15:20:33.122Z,14.23
2019-05-13T15:23:06.409Z,14.16
2019-05-13T15:25:43.303Z,14.16
2019-05-13T15:28:14.332Z,14.03
2019-05-13T15:30:42.148Z,13.86
2019-05-13T15:36:05.128Z,13.52
2019-05-13T15:38:32.438Z,13.29
2019-05-13T15:41:07.185Z,13.12
2019-05-13T15:43:36.612Z,13.00
2019-05-13T15:46:07.294Z,12.84
2019-05-13T15:51:49.875Z,12.72
2019-05-13T15:54:17.181Z,12.73
2019-05-13T15:56:44.273Z,12.74
2019-05-13T15:59:12.621Z,12.72
2019-05-13T16:01:47.867Z,12.68
2019-05-13T16:04:15.037Z,12.62
2019-05-13T16:06:42.127Z,12.57
2019-05-13T16:09:11.579Z,12.51
2019-05-13T16:11:44.900Z,12.49
2019-05-13T16:14:12.007Z,12.44
2019-05-13T16:16:41.561Z,12.39
2019-05-13T16:19:17.874Z,12.37
2019-05-13T16:21:45.175Z,12.38
2019-05-13T16:24:12.305Z,12.40
2019-05-13T16:26:39.498Z,12.37
2019-05-13T16:29:06.672Z,12.39
2019-05-13T16:31:33.768Z,12.39
2019-05-13T16:34:01.640Z,12.43
2019-05-13T16:36:36.397Z,12.47
2019-05-13T16:42:24.796Z,12.26
2019-05-13T16:44:51.919Z,12.26
2019-05-13T16:47:21.155Z,12.24
2019-05-13T16:49:57.532Z,12.28
2019-05-13T16:52:44.176Z,12.32
2019-05-13T16:55:12.823Z,12.40
2019-05-13T16:57:47.008Z,12.49
2019-05-13T17:00:14.385Z,12.47
2019-05-13T17:02:42.323Z,12.54
2019-05-13T17:05:16.581Z,12.66
2019-05-13T17:07:43.665Z,12.89
2019-05-13T17:10:51.673Z,12.94
2019-05-13T17:16:41.217Z,12.61
2019-05-13T17:19:14.302Z,12.41
2019-05-13T17:21:41.402Z,12.27
2019-05-13T17:24:08.573Z,12.16
2019-05-13T17:26:35.711Z,12.05
2019-05-13T17:29:02.821Z,12.02
2019-05-13T17:31:32.361Z,11.89
2019-05-13T17:34:05.000Z,11.68
2019-05-13T17:36:32.620Z,11.50
2019-05-13T17:39:07.799Z,11.41
2019-05-13T17:41:34.880Z,11.34
2019-05-13T17:44:02.380Z,11.32
2019-05-13T17:46:41.817Z,11.32
2019-05-13T17:49:15.861Z,11.27
2019-05-13T17:52:02.682Z,11.23
2019-05-13T17:54:42.781Z,11.23
2019-05-13T17:57:16.393Z,11.16
2019-05-13T17:59:56.590Z,11.24
2019-05-13T18:02:36.814Z,11.33
2019-05-13T18:05:04.198Z,11.33
2019-05-13T18:07:32.118Z,11.33
2019-05-13T18:10:12.017Z,11.28
2019-05-13T18:12:45.230Z,11.15
2019-05-13T18:15:53.152Z,11.13
2019-05-13T18:18:21.545Z,11.22
2019-05-13T18:21:08.500Z,11.13
2019-05-13T18:23:35.605Z,11.13
2019-05-13T18:26:02.836Z,10.98
2019-05-13T18:28:31.422Z,10.83
2019-05-13T18:31:05.552Z,10.71
2019-05-13T18:33:32.679Z,10.57
2019-05-13T18:36:01.746Z,10.49
2019-05-13T18:38:34.871Z,10.44
2019-05-13T18:41:02.074Z,10.40
2019-05-13T18:43:29.203Z,10.35
2019-05-13T18:45:56.287Z,10.31
2019-05-13T18:48:23.378Z,10.28
2019-05-13T18:50:52.380Z,10.23
2019-05-13T18:53:25.840Z,10.19
2019-05-13T18:55:52.939Z,10.16
2019-05-13T18:58:22.070Z,10.14
2019-05-13T19:00:55.231Z,10.10
2019-05-13T19:03:22.293Z,10.08
2019-05-13T19:05:49.409Z,10.04
2019-05-13T19:08:16.537Z,10.00
2019-05-13T19:10:43.641Z,9.96
2019-05-13T19:13:12.391Z,9.92
2019-05-13T19:15:45.867Z,9.91
2019-05-13T19:18:12.969Z,9.88
2019-05-13T19:20:41.889Z,9.88
2019-05-13T19:23:15.327Z,9.85
2019-05-13T19:25:42.885Z,9.83
2019-05-13T19:28:22.275Z,9.80
2019-05-13T19:30:56.949Z,9.80
2019-05-13T19:33:31.734Z,9.78
2019-05-13T19:36:01.150Z,9.77
2019-05-13T19:38:37.595Z,9.74
2019-05-13T19:41:04.679Z,9.73
2019-05-13T19:43:31.777Z,9.71
2019-05-13T19:46:01.221Z,9.71
2019-05-13T19:48:34.556Z,9.70
2019-05-13T19:51:01.859Z,9.68
2019-05-13T19:53:28.935Z,9.66
2019-05-13T19:55:56.173Z,9.65
2019-05-13T19:58:23.362Z,9.63
2019-05-13T20:00:51.586Z,9.61
2019-05-13T20:03:31.528Z,9.57
2019-05-13T20:06:04.184Z,9.55
2019-05-13T20:08:32.004Z,9.53
2019-05-13T20:11:11.501Z,9.55
2019-05-13T20:13:45.620Z,9.49
2019-05-13T20:16:12.745Z,9.45
2019-05-13T20:18:41.397Z,9.42
2019-05-13T20:21:15.344Z,9.36
2019-05-13T20:23:42.474Z,9.31
2019-05-13T20:26:09.551Z,9.31
2019-05-13T20:28:36.686Z,9.32
2019-05-13T20:31:03.772Z,9.30
2019-05-13T20:33:31.991Z,9.29
2019-05-13T20:36:11.753Z,9.29
2019-05-13T20:38:48.434Z,9.30
2019-05-13T20:41:15.570Z,9.32
2019-05-13T20:43:42.810Z,9.33
2019-05-13T20:46:11.316Z,9.31
2019-05-13T20:48:45.457Z,9.31
2019-05-13T20:51:12.559Z,9.28
2019-05-13T20:53:41.226Z,9.24
2019-05-13T20:56:18.256Z,9.19
2019-05-13T20:58:45.404Z,9.15
2019-05-13T21:01:12.499Z,9.14
2019-05-13T21:03:41.823Z,9.15
2019-05-13T21:06:15.010Z,9.14
2019-05-13T21:08:42.055Z,9.15
2019-05-13T21:11:11.354Z,9.15
2019-05-13T21:13:38.169Z,9.12
2019-05-13T21:16:05.227Z,9.09
2019-05-13T21:18:32.295Z,9.01
2019-05-13T21:20:59.439Z,8.99
2019-05-13T21:23:26.545Z,9.03
2019-05-13T21:25:53.651Z,9.02
2019-05-13T21:28:22.079Z,8.99
2019-05-13T21:30:51.431Z,8.98
2019-05-13T21:33:18.555Z,8.98
2019-05-13T21:35:45.607Z,8.97
2019-05-13T21:38:12.721Z,8.96
2019-05-13T21:40:41.533Z,8.92
2019-05-13T21:43:08.802Z,8.87
2019-05-13T21:45:35.860Z,8.80
2019-05-13T21:48:02.927Z,8.79
2019-05-13T21:50:36.366Z,8.79
2019-05-13T21:52:58.979Z,8.75
2019-05-13T21:55:28.953Z,8.67
2019-05-13T21:57:56.038Z,8.64
2019-05-13T22:00:25.460Z,8.62
2019-05-13T22:02:52.536Z,8.59
2019-05-13T22:05:19.598Z,8.59
2019-05-13T22:07:47.288Z,8.57
2019-05-13T22:10:14.435Z,8.56
2019-05-13T22:12:41.573Z,8.53
2019-05-13T22:15:09.654Z,8.47
2019-05-13T22:17:36.749Z,8.45
2019-05-13T22:20:04.512Z,8.45
2019-05-13T22:22:32.130Z,8.45
2019-05-13T22:25:01.783Z,8.45
2019-05-13T22:27:28.232Z,8.43
2019-05-13T22:29:55.297Z,8.38
2019-05-13T22:32:22.362Z,8.32
2019-05-13T22:34:51.170Z,8.26
2019-05-13T22:37:18.400Z,8.20
2019-05-13T22:39:45.456Z,8.12
2019-05-13T22:42:12.674Z,8.04
2019-05-13T22:44:41.717Z,7.90
2019-05-13T22:47:13.096Z,7.76
2019-05-13T22:49:37.783Z,7.63
2019-05-13T22:52:04.890Z,7.54
2019-05-13T22:54:32.045Z,7.48
2019-05-13T22:56:59.131Z,7.44
2019-05-13T22:59:26.175Z,7.40
2019-05-13T23:01:53.266Z,7.35
2019-05-13T23:04:20.337Z,7.32
2019-05-13T23:06:47.432Z,7.27
2019-05-13T23:09:14.475Z,7.20
2019-05-13T23:11:41.856Z,7.12
2019-05-13T23:14:12.883Z,7.07
2019-05-13T23:27:32.005Z,6.89
2019-05-13T23:37:08.398Z,6.64
2019-05-13T23:39:35.476Z,6.61
2019-05-13T23:42:02.611Z,6.58
2019-05-13T23:44:32.015Z,6.53
2019-05-13T23:46:58.696Z,6.46
2019-05-13T23:49:25.806Z,6.40
2019-05-13T23:51:52.880Z,6.38
2019-05-13T23:54:21.385Z,6.36
2019-05-13T23:56:48.728Z,6.35
2019-05-13T23:59:15.880Z,6.30
